sensor_id;sensor_type;location;lat;lon;timestamp;P1;durP1;ratioP1;P2;durP2;ratioP2
51718;SDS011;37795;53.236;5.704;2022-07-23T00:01:32;5.47;;;2.35;;
51718;SDS011;37795;53.236;5.704;2022-07-23T00:03:58;4.57;;;2.33;;
51718;SDS011;37795;53.236;5.704;2022-07-23T00:06:25;4.00;;;2.22;;
51718;SDS011;37795;53.236;5.704;2022-07-23T00:08:51;3.85;;;2.10;;
51718;SDS011;37795;53.236;5.704;2022-07-23T00:11:17;5.55;;;2.15;;
51718;SDS011;37795;53.236;5.704;2022-07-23T00:13:44;3.40;;;2.20;;
51718;SDS011;37795;53.236;5.704;2022-07-23T00:16:10;2.40;;;2.20;;
51718;SDS011;37795;53.236;5.704;2022-07-23T00:18:36;2.40;;;2.17;;
51718;SDS011;37795;53.236;5.704;2022-07-23T00:21:02;5.75;;;2.50;;
51718;SDS011;37795;53.236;5.704;2022-07-23T00:23:29;3.75;;;2.58;;
51718;SDS011;37795;53.236;5.704;2022-07-23T00:25:55;3.72;;;2.95;;
51718;SDS011;37795;53.236;5.704;2022-07-23T00:28:22;5.93;;;2.67;;
51718;SDS011;37795;53.236;5.704;2022-07-23T00:30:48;6.18;;;3.38;;
51718;SDS011;37795;53.236;5.704;2022-07-23T00:33:14;3.80;;;2.88;;
51718;SDS011;37795;53.236;5.704;2022-07-23T00:35:40;6.82;;;3.40;;
51718;SDS011;37795;53.236;5.704;2022-07-23T00:38:10;5.53;;;3.80;;
51718;SDS011;37795;53.236;5.704;2022-07-23T00:40:37;6.95;;;3.92;;
51718;SDS011;37795;53.236;5.704;2022-07-23T00:43:03;6.10;;;4.05;;
51718;SDS011;37795;53.236;5.704;2022-07-23T00:45:30;7.43;;;3.80;;
51718;SDS011;37795;53.236;5.704;2022-07-23T00:47:56;3.83;;;2.90;;
51718;SDS011;37795;53.236;5.704;2022-07-23T00:50:22;6.85;;;3.70;;
51718;SDS011;37795;53.236;5.704;2022-07-23T00:52:48;3.90;;;3.30;;
51718;SDS011;37795;53.236;5.704;2022-07-23T00:55:15;6.63;;;3.67;;
51718;SDS011;37795;53.236;5.704;2022-07-23T00:57:41;5.22;;;3.50;;
51718;SDS011;37795;53.236;5.704;2022-07-23T01:00:09;6.55;;;3.67;;
51718;SDS011;37795;53.236;5.704;2022-07-23T01:02:35;4.93;;;3.57;;
51718;SDS011;37795;53.236;5.704;2022-07-23T01:05:02;5.20;;;3.67;;
51718;SDS011;37795;53.236;5.704;2022-07-23T01:07:28;4.47;;;4.07;;
51718;SDS011;37795;53.236;5.704;2022-07-23T01:09:55;4.57;;;3.97;;
51718;SDS011;37795;53.236;5.704;2022-07-23T01:12:21;3.75;;;3.17;;
51718;SDS011;37795;53.236;5.704;2022-07-23T01:14:57;6.28;;;4.40;;
51718;SDS011;37795;53.236;5.704;2022-07-23T01:17:23;8.02;;;3.83;;
51718;SDS011;37795;53.236;5.704;2022-07-23T01:19:49;5.75;;;3.60;;
51718;SDS011;37795;53.236;5.704;2022-07-23T01:22:17;5.20;;;3.97;;
51718;SDS011;37795;53.236;5.704;2022-07-23T01:24:43;4.15;;;3.75;;
51718;SDS011;37795;53.236;5.704;2022-07-23T01:27:09;4.75;;;3.60;;
51718;SDS011;37795;53.236;5.704;2022-07-23T01:29:37;8.85;;;3.75;;
51718;SDS011;37795;53.236;5.704;2022-07-23T01:32:04;5.23;;;4.67;;
51718;SDS011;37795;53.236;5.704;2022-07-23T01:34:30;4.03;;;3.63;;
51718;SDS011;37795;53.236;5.704;2022-07-23T01:36:56;6.20;;;3.50;;
51718;SDS011;37795;53.236;5.704;2022-07-23T01:39:22;4.75;;;4.07;;
51718;SDS011;37795;53.236;5.704;2022-07-23T01:41:48;5.85;;;4.13;;
51718;SDS011;37795;53.236;5.704;2022-07-23T01:44:14;5.45;;;4.72;;
51718;SDS011;37795;53.236;5.704;2022-07-23T01:46:40;5.03;;;4.15;;
51718;SDS011;37795;53.236;5.704;2022-07-23T01:49:06;6.32;;;4.25;;
51718;SDS011;37795;53.236;5.704;2022-07-23T01:51:32;5.10;;;4.32;;
51718;SDS011;37795;53.236;5.704;2022-07-23T01:53:59;6.90;;;4.60;;
51718;SDS011;37795;53.236;5.704;2022-07-23T01:56:25;5.18;;;4.55;;
51718;SDS011;37795;53.236;5.704;2022-07-23T01:58:51;6.18;;;4.72;;
51718;SDS011;37795;53.236;5.704;2022-07-23T02:01:17;5.20;;;4.22;;
51718;SDS011;37795;53.236;5.704;2022-07-23T02:03:43;4.57;;;4.00;;
51718;SDS011;37795;53.236;5.704;2022-07-23T02:06:09;4.47;;;3.90;;
51718;SDS011;37795;53.236;5.704;2022-07-23T02:08:35;7.70;;;4.60;;
51718;SDS011;37795;53.236;5.704;2022-07-23T02:11:01;5.50;;;4.30;;
51718;SDS011;37795;53.236;5.704;2022-07-23T02:13:27;7.22;;;4.60;;
51718;SDS011;37795;53.236;5.704;2022-07-23T02:15:54;8.10;;;4.90;;
51718;SDS011;37795;53.236;5.704;2022-07-23T02:18:20;6.63;;;5.03;;
51718;SDS011;37795;53.236;5.704;2022-07-23T02:20:46;10.73;;;4.78;;
51718;SDS011;37795;53.236;5.704;2022-07-23T02:23:12;7.60;;;5.28;;
51718;SDS011;37795;53.236;5.704;2022-07-23T02:25:39;6.90;;;4.63;;
51718;SDS011;37795;53.236;5.704;2022-07-23T02:28:05;7.70;;;5.60;;
51718;SDS011;37795;53.236;5.704;2022-07-23T02:30:31;5.97;;;4.53;;
51718;SDS011;37795;53.236;5.704;2022-07-23T02:32:57;7.70;;;4.07;;
51718;SDS011;37795;53.236;5.704;2022-07-23T02:35:23;5.32;;;4.25;;
51718;SDS011;37795;53.236;5.704;2022-07-23T02:37:49;5.70;;;3.90;;
51718;SDS011;37795;53.236;5.704;2022-07-23T02:40:16;5.47;;;3.83;;
51718;SDS011;37795;53.236;5.704;2022-07-23T02:42:42;4.57;;;4.03;;
51718;SDS011;37795;53.236;5.704;2022-07-23T02:45:08;8.30;;;4.10;;
51718;SDS011;37795;53.236;5.704;2022-07-23T02:47:34;5.13;;;3.58;;
51718;SDS011;37795;53.236;5.704;2022-07-23T02:50:00;5.17;;;3.93;;
51718;SDS011;37795;53.236;5.704;2022-07-23T02:52:26;9.25;;;3.78;;
51718;SDS011;37795;53.236;5.704;2022-07-23T02:54:52;5.97;;;3.72;;
51718;SDS011;37795;53.236;5.704;2022-07-23T02:57:18;5.83;;;3.97;;
51718;SDS011;37795;53.236;5.704;2022-07-23T02:59:44;4.38;;;3.65;;
51718;SDS011;37795;53.236;5.704;2022-07-23T03:02:10;7.47;;;4.47;;
51718;SDS011;37795;53.236;5.704;2022-07-23T03:04:36;7.25;;;4.03;;
51718;SDS011;37795;53.236;5.704;2022-07-23T03:07:02;4.53;;;3.92;;
51718;SDS011;37795;53.236;5.704;2022-07-23T03:09:29;5.30;;;3.63;;
51718;SDS011;37795;53.236;5.704;2022-07-23T03:11:55;4.40;;;3.63;;
51718;SDS011;37795;53.236;5.704;2022-07-23T03:14:21;5.25;;;3.80;;
51718;SDS011;37795;53.236;5.704;2022-07-23T03:16:47;7.78;;;4.15;;
51718;SDS011;37795;53.236;5.704;2022-07-23T03:19:15;7.85;;;4.20;;
51718;SDS011;37795;53.236;5.704;2022-07-23T03:21:41;6.75;;;4.30;;
51718;SDS011;37795;53.236;5.704;2022-07-23T03:24:07;6.97;;;3.80;;
51718;SDS011;37795;53.236;5.704;2022-07-23T03:26:34;5.57;;;4.03;;
51718;SDS011;37795;53.236;5.704;2022-07-23T03:29:00;7.07;;;4.05;;
51718;SDS011;37795;53.236;5.704;2022-07-23T03:31:28;5.32;;;3.63;;
51718;SDS011;37795;53.236;5.704;2022-07-23T03:33:55;7.18;;;3.80;;
51718;SDS011;37795;53.236;5.704;2022-07-23T03:36:21;4.85;;;4.15;;
51718;SDS011;37795;53.236;5.704;2022-07-23T03:38:47;6.28;;;4.03;;
51718;SDS011;37795;53.236;5.704;2022-07-23T03:41:13;6.03;;;3.70;;
51718;SDS011;37795;53.236;5.704;2022-07-23T03:43:39;8.02;;;3.60;;
51718;SDS011;37795;53.236;5.704;2022-07-23T03:46:05;5.20;;;2.90;;
51718;SDS011;37795;53.236;5.704;2022-07-23T03:48:31;3.97;;;3.53;;
51718;SDS011;37795;53.236;5.704;2022-07-23T03:50:57;6.55;;;3.45;;
51718;SDS011;37795;53.236;5.704;2022-07-23T03:53:23;3.38;;;3.08;;
51718;SDS011;37795;53.236;5.704;2022-07-23T03:55:49;3.85;;;3.45;;
51718;SDS011;37795;53.236;5.704;2022-07-23T03:58:16;4.55;;;3.55;;
51718;SDS011;37795;53.236;5.704;2022-07-23T04:00:42;4.47;;;2.95;;
51718;SDS011;37795;53.236;5.704;2022-07-23T04:03:08;3.83;;;3.10;;
51718;SDS011;37795;53.236;5.704;2022-07-23T04:05:34;10.85;;;3.20;;
51718;SDS011;37795;53.236;5.704;2022-07-23T04:08:00;4.05;;;3.03;;
51718;SDS011;37795;53.236;5.704;2022-07-23T04:10:26;4.72;;;2.80;;
51718;SDS011;37795;53.236;5.704;2022-07-23T04:12:52;5.10;;;3.65;;
51718;SDS011;37795;53.236;5.704;2022-07-23T04:15:18;4.82;;;3.00;;
51718;SDS011;37795;53.236;5.704;2022-07-23T04:17:44;5.00;;;2.95;;
51718;SDS011;37795;53.236;5.704;2022-07-23T04:20:11;7.90;;;3.47;;
51718;SDS011;37795;53.236;5.704;2022-07-23T04:22:38;3.17;;;2.85;;
51718;SDS011;37795;53.236;5.704;2022-07-23T04:25:04;7.07;;;3.40;;
51718;SDS011;37795;53.236;5.704;2022-07-23T04:27:30;6.28;;;3.10;;
51718;SDS011;37795;53.236;5.704;2022-07-23T04:29:58;4.78;;;2.88;;
51718;SDS011;37795;53.236;5.704;2022-07-23T04:32:24;4.37;;;3.10;;
51718;SDS011;37795;53.236;5.704;2022-07-23T04:34:50;2.85;;;2.42;;
51718;SDS011;37795;53.236;5.704;2022-07-23T04:37:16;3.58;;;2.75;;
51718;SDS011;37795;53.236;5.704;2022-07-23T04:39:42;3.30;;;2.40;;
51718;SDS011;37795;53.236;5.704;2022-07-23T04:42:09;5.07;;;2.25;;
51718;SDS011;37795;53.236;5.704;2022-07-23T04:44:35;7.20;;;2.10;;
51718;SDS011;37795;53.236;5.704;2022-07-23T04:47:01;3.95;;;2.10;;
51718;SDS011;37795;53.236;5.704;2022-07-23T04:49:27;3.33;;;2.15;;
51718;SDS011;37795;53.236;5.704;2022-07-23T04:51:53;4.15;;;1.77;;
51718;SDS011;37795;53.236;5.704;2022-07-23T04:54:20;5.10;;;2.05;;
51718;SDS011;37795;53.236;5.704;2022-07-23T04:56:46;3.60;;;2.00;;
51718;SDS011;37795;53.236;5.704;2022-07-23T04:59:12;2.55;;;1.50;;
51718;SDS011;37795;53.236;5.704;2022-07-23T05:01:38;3.80;;;1.70;;
51718;SDS011;37795;53.236;5.704;2022-07-23T05:04:04;3.42;;;1.45;;
51718;SDS011;37795;53.236;5.704;2022-07-23T05:06:30;2.47;;;1.80;;
51718;SDS011;37795;53.236;5.704;2022-07-23T05:08:56;3.05;;;2.05;;
51718;SDS011;37795;53.236;5.704;2022-07-23T05:11:22;4.30;;;1.60;;
51718;SDS011;37795;53.236;5.704;2022-07-23T05:13:48;2.90;;;1.63;;
51718;SDS011;37795;53.236;5.704;2022-07-23T05:16:14;3.50;;;1.80;;
51718;SDS011;37795;53.236;5.704;2022-07-23T05:18:40;3.17;;;1.80;;
51718;SDS011;37795;53.236;5.704;2022-07-23T05:21:06;2.33;;;1.35;;
51718;SDS011;37795;53.236;5.704;2022-07-23T05:23:32;2.43;;;1.53;;
51718;SDS011;37795;53.236;5.704;2022-07-23T05:25:58;3.47;;;1.23;;
51718;SDS011;37795;53.236;5.704;2022-07-23T05:28:24;2.10;;;1.42;;
51718;SDS011;37795;53.236;5.704;2022-07-23T05:30:50;2.03;;;1.35;;
51718;SDS011;37795;53.236;5.704;2022-07-23T05:33:20;3.10;;;1.40;;
51718;SDS011;37795;53.236;5.704;2022-07-23T05:35:46;0.93;;;0.87;;
51718;SDS011;37795;53.236;5.704;2022-07-23T05:38:12;4.72;;;1.15;;
51718;SDS011;37795;53.236;5.704;2022-07-23T05:40:38;1.67;;;1.25;;
51718;SDS011;37795;53.236;5.704;2022-07-23T05:43:05;1.85;;;1.10;;
51718;SDS011;37795;53.236;5.704;2022-07-23T05:45:31;3.85;;;1.10;;
51718;SDS011;37795;53.236;5.704;2022-07-23T05:47:57;1.73;;;1.10;;
51718;SDS011;37795;53.236;5.704;2022-07-23T05:50:23;1.90;;;1.13;;
51718;SDS011;37795;53.236;5.704;2022-07-23T05:52:49;1.80;;;1.10;;
51718;SDS011;37795;53.236;5.704;2022-07-23T05:55:15;2.20;;;1.10;;
51718;SDS011;37795;53.236;5.704;2022-07-23T05:57:41;3.33;;;0.93;;
51718;SDS011;37795;53.236;5.704;2022-07-23T06:00:08;1.15;;;1.00;;
51718;SDS011;37795;53.236;5.704;2022-07-23T06:02:35;2.42;;;1.00;;
51718;SDS011;37795;53.236;5.704;2022-07-23T06:05:01;4.33;;;1.20;;
51718;SDS011;37795;53.236;5.704;2022-07-23T06:07:27;2.22;;;1.80;;
51718;SDS011;37795;53.236;5.704;2022-07-23T06:09:53;2.90;;;1.10;;
51718;SDS011;37795;53.236;5.704;2022-07-23T06:12:19;1.00;;;1.00;;
51718;SDS011;37795;53.236;5.704;2022-07-23T06:14:45;0.90;;;0.80;;
51718;SDS011;37795;53.236;5.704;2022-07-23T06:17:13;2.38;;;1.05;;
51718;SDS011;37795;53.236;5.704;2022-07-23T06:19:39;1.20;;;1.10;;
51718;SDS011;37795;53.236;5.704;2022-07-23T06:22:05;2.30;;;1.00;;
51718;SDS011;37795;53.236;5.704;2022-07-23T06:24:31;1.42;;;0.98;;
51718;SDS011;37795;53.236;5.704;2022-07-23T06:26:57;2.20;;;0.98;;
51718;SDS011;37795;53.236;5.704;2022-07-23T06:29:23;0.63;;;0.60;;
51718;SDS011;37795;53.236;5.704;2022-07-23T06:31:49;1.92;;;0.82;;
51718;SDS011;37795;53.236;5.704;2022-07-23T06:34:16;1.48;;;0.75;;
51718;SDS011;37795;53.236;5.704;2022-07-23T06:36:42;1.48;;;0.80;;
51718;SDS011;37795;53.236;5.704;2022-07-23T06:39:08;1.50;;;0.80;;
51718;SDS011;37795;53.236;5.704;2022-07-23T06:41:34;0.82;;;0.82;;
51718;SDS011;37795;53.236;5.704;2022-07-23T06:44:00;3.83;;;0.93;;
51718;SDS011;37795;53.236;5.704;2022-07-23T06:46:26;1.58;;;0.80;;
51718;SDS011;37795;53.236;5.704;2022-07-23T06:52:09;1.65;;;0.95;;
51718;SDS011;37795;53.236;5.704;2022-07-23T06:54:35;0.80;;;0.65;;
51718;SDS011;37795;53.236;5.704;2022-07-23T06:57:01;0.95;;;0.80;;
51718;SDS011;37795;53.236;5.704;2022-07-23T06:59:27;3.55;;;0.98;;
51718;SDS011;37795;53.236;5.704;2022-07-23T07:01:53;1.30;;;0.80;;
51718;SDS011;37795;53.236;5.704;2022-07-23T07:04:19;1.00;;;0.90;;
51718;SDS011;37795;53.236;5.704;2022-07-23T07:06:45;3.80;;;1.38;;
51718;SDS011;37795;53.236;5.704;2022-07-23T07:09:11;1.10;;;0.93;;
51718;SDS011;37795;53.236;5.704;2022-07-23T07:11:37;1.75;;;0.82;;
51718;SDS011;37795;53.236;5.704;2022-07-23T07:14:04;1.60;;;0.80;;
51718;SDS011;37795;53.236;5.704;2022-07-23T07:16:30;0.95;;;0.82;;
51718;SDS011;37795;53.236;5.704;2022-07-23T07:18:56;0.90;;;0.70;;
51718;SDS011;37795;53.236;5.704;2022-07-23T07:21:22;2.10;;;1.00;;
51718;SDS011;37795;53.236;5.704;2022-07-23T07:23:48;1.60;;;0.90;;
51718;SDS011;37795;53.236;5.704;2022-07-23T07:26:14;2.20;;;1.15;;
51718;SDS011;37795;53.236;5.704;2022-07-23T07:28:40;1.07;;;0.87;;
51718;SDS011;37795;53.236;5.704;2022-07-23T07:31:06;3.95;;;0.95;;
51718;SDS011;37795;53.236;5.704;2022-07-23T07:33:32;1.48;;;0.90;;
51718;SDS011;37795;53.236;5.704;2022-07-23T07:35:58;2.67;;;0.95;;
51718;SDS011;37795;53.236;5.704;2022-07-23T07:38:25;2.67;;;1.05;;
51718;SDS011;37795;53.236;5.704;2022-07-23T07:40:51;1.70;;;0.82;;
51718;SDS011;37795;53.236;5.704;2022-07-23T07:43:17;1.80;;;0.90;;
51718;SDS011;37795;53.236;5.704;2022-07-23T07:45:43;1.20;;;0.90;;
51718;SDS011;37795;53.236;5.704;2022-07-23T07:48:09;1.02;;;0.60;;
51718;SDS011;37795;53.236;5.704;2022-07-23T07:50:35;0.85;;;0.68;;
51718;SDS011;37795;53.236;5.704;2022-07-23T07:53:02;1.30;;;0.77;;
51718;SDS011;37795;53.236;5.704;2022-07-23T07:55:28;1.02;;;0.75;;
51718;SDS011;37795;53.236;5.704;2022-07-23T07:57:54;1.65;;;0.82;;
51718;SDS011;37795;53.236;5.704;2022-07-23T08:00:20;1.42;;;0.90;;
51718;SDS011;37795;53.236;5.704;2022-07-23T08:02:47;2.42;;;1.27;;
51718;SDS011;37795;53.236;5.704;2022-07-23T08:05:13;3.28;;;1.05;;
51718;SDS011;37795;53.236;5.704;2022-07-23T08:07:40;1.08;;;0.70;;
51718;SDS011;37795;53.236;5.704;2022-07-23T08:10:07;3.10;;;0.90;;
51718;SDS011;37795;53.236;5.704;2022-07-23T08:12:37;2.05;;;0.80;;
51718;SDS011;37795;53.236;5.704;2022-07-23T08:15:03;2.73;;;0.90;;
51718;SDS011;37795;53.236;5.704;2022-07-23T08:17:30;1.48;;;1.20;;
51718;SDS011;37795;53.236;5.704;2022-07-23T08:19:56;3.35;;;1.45;;
51718;SDS011;37795;53.236;5.704;2022-07-23T08:22:22;2.90;;;1.25;;
51718;SDS011;37795;53.236;5.704;2022-07-23T08:24:48;2.03;;;1.13;;
51718;SDS011;37795;53.236;5.704;2022-07-23T08:27:14;1.65;;;0.95;;
51718;SDS011;37795;53.236;5.704;2022-07-23T08:29:40;2.53;;;1.15;;
51718;SDS011;37795;53.236;5.704;2022-07-23T08:32:06;5.13;;;1.30;;
51718;SDS011;37795;53.236;5.704;2022-07-23T08:34:32;1.85;;;1.10;;
51718;SDS011;37795;53.236;5.704;2022-07-23T08:36:58;4.05;;;1.27;;
51718;SDS011;37795;53.236;5.704;2022-07-23T08:39:24;2.20;;;1.25;;
51718;SDS011;37795;53.236;5.704;2022-07-23T08:41:50;1.55;;;1.13;;
51718;SDS011;37795;53.236;5.704;2022-07-23T08:44:16;2.65;;;1.10;;
51718;SDS011;37795;53.236;5.704;2022-07-23T08:46:43;3.50;;;1.08;;
51718;SDS011;37795;53.236;5.704;2022-07-23T08:49:10;1.40;;;1.30;;
51718;SDS011;37795;53.236;5.704;2022-07-23T08:51:36;1.83;;;1.13;;
51718;SDS011;37795;53.236;5.704;2022-07-23T08:54:02;1.02;;;0.93;;
51718;SDS011;37795;53.236;5.704;2022-07-23T08:56:29;1.80;;;1.20;;
51718;SDS011;37795;53.236;5.704;2022-07-23T08:58:55;1.85;;;1.08;;
51718;SDS011;37795;53.236;5.704;2022-07-23T09:01:21;1.65;;;1.02;;
51718;SDS011;37795;53.236;5.704;2022-07-23T09:03:47;0.95;;;0.85;;
51718;SDS011;37795;53.236;5.704;2022-07-23T10:54:41;4.82;;;1.27;;
51718;SDS011;37795;53.236;5.704;2022-07-23T10:57:08;3.20;;;1.50;;
51718;SDS011;37795;53.236;5.704;2022-07-23T11:02:23;1.92;;;1.02;;
51718;SDS011;37795;53.236;5.704;2022-07-23T11:04:50;2.13;;;1.35;;
51718;SDS011;37795;53.236;5.704;2022-07-23T11:07:16;1.58;;;1.13;;
51718;SDS011;37795;53.236;5.704;2022-07-23T11:09:43;3.00;;;1.10;;
51718;SDS011;37795;53.236;5.704;2022-07-23T11:17:25;4.53;;;1.13;;
51718;SDS011;37795;53.236;5.704;2022-07-23T11:22:34;2.50;;;0.90;;
51718;SDS011;37795;53.236;5.704;2022-07-23T11:25:00;2.40;;;1.10;;
51718;SDS011;37795;53.236;5.704;2022-07-23T11:27:39;3.43;;;1.10;;
51718;SDS011;37795;53.236;5.704;2022-07-23T11:30:09;1.67;;;0.90;;
51718;SDS011;37795;53.236;5.704;2022-07-23T11:32:37;1.45;;;1.10;;
51718;SDS011;37795;53.236;5.704;2022-07-23T11:35:26;1.13;;;0.90;;
51718;SDS011;37795;53.236;5.704;2022-07-23T11:38:14;1.00;;;0.90;;
51718;SDS011;37795;53.236;5.704;2022-07-23T11:40:39;1.55;;;1.10;;
51718;SDS011;37795;53.236;5.704;2022-07-23T11:43:06;2.33;;;0.90;;
51718;SDS011;37795;53.236;5.704;2022-07-23T11:47:59;1.05;;;0.90;;
51718;SDS011;37795;53.236;5.704;2022-07-23T11:50:25;0.93;;;0.90;;
51718;SDS011;37795;53.236;5.704;2022-07-23T11:52:52;1.52;;;1.20;;
51718;SDS011;37795;53.236;5.704;2022-07-23T11:55:18;1.77;;;1.05;;
51718;SDS011;37795;53.236;5.704;2022-07-23T11:57:45;1.63;;;1.10;;
51718;SDS011;37795;53.236;5.704;2022-07-23T12:02:41;1.27;;;1.08;;
51718;SDS011;37795;53.236;5.704;2022-07-23T12:05:09;1.73;;;0.90;;
51718;SDS011;37795;53.236;5.704;2022-07-23T12:07:40;1.83;;;0.82;;
51718;SDS011;37795;53.236;5.704;2022-07-23T12:12:39;1.20;;;1.02;;
51718;SDS011;37795;53.236;5.704;2022-07-23T12:15:05;1.60;;;0.70;;
51718;SDS011;37795;53.236;5.704;2022-07-23T12:17:33;2.45;;;0.95;;
51718;SDS011;37795;53.236;5.704;2022-07-23T12:19:59;1.48;;;0.93;;
51718;SDS011;37795;53.236;5.704;2022-07-23T12:22:33;1.67;;;1.00;;
51718;SDS011;37795;53.236;5.704;2022-07-23T12:25:00;1.65;;;1.10;;
51718;SDS011;37795;53.236;5.704;2022-07-23T12:27:27;1.98;;;1.20;;
51718;SDS011;37795;53.236;5.704;2022-07-23T12:29:54;3.60;;;1.38;;
51718;SDS011;37795;53.236;5.704;2022-07-23T12:32:26;2.58;;;1.13;;
51718;SDS011;37795;53.236;5.704;2022-07-23T12:35:03;1.70;;;1.15;;
51718;SDS011;37795;53.236;5.704;2022-07-23T12:37:31;1.17;;;1.00;;
51718;SDS011;37795;53.236;5.704;2022-07-23T12:39:57;1.85;;;1.25;;
51718;SDS011;37795;53.236;5.704;2022-07-23T12:42:23;2.67;;;1.37;;
51718;SDS011;37795;53.236;5.704;2022-07-23T12:45:02;1.95;;;1.30;;
51718;SDS011;37795;53.236;5.704;2022-07-23T12:47:28;3.10;;;1.77;;
51718;SDS011;37795;53.236;5.704;2022-07-23T12:49:55;5.90;;;1.50;;
51718;SDS011;37795;53.236;5.704;2022-07-23T12:52:21;1.98;;;1.27;;
51718;SDS011;37795;53.236;5.704;2022-07-23T12:54:47;1.75;;;1.40;;
51718;SDS011;37795;53.236;5.704;2022-07-23T12:57:13;3.42;;;1.60;;
51718;SDS011;37795;53.236;5.704;2022-07-23T12:59:39;2.97;;;1.33;;
51718;SDS011;37795;53.236;5.704;2022-07-23T13:02:07;2.75;;;1.45;;
51718;SDS011;37795;53.236;5.704;2022-07-23T13:04:35;3.90;;;1.50;;
51718;SDS011;37795;53.236;5.704;2022-07-23T13:07:01;1.80;;;1.40;;
51718;SDS011;37795;53.236;5.704;2022-07-23T13:09:28;3.30;;;1.43;;
51718;SDS011;37795;53.236;5.704;2022-07-23T13:11:55;1.95;;;1.23;;
51718;SDS011;37795;53.236;5.704;2022-07-23T13:14:22;2.17;;;1.10;;
51718;SDS011;37795;53.236;5.704;2022-07-23T13:16:48;2.63;;;1.27;;
51718;SDS011;37795;53.236;5.704;2022-07-23T13:19:15;2.00;;;1.50;;
51718;SDS011;37795;53.236;5.704;2022-07-23T13:21:41;5.28;;;1.58;;
51718;SDS011;37795;53.236;5.704;2022-07-23T13:24:08;2.40;;;1.40;;
51718;SDS011;37795;53.236;5.704;2022-07-23T13:26:35;2.00;;;1.48;;
51718;SDS011;37795;53.236;5.704;2022-07-23T13:29:01;1.77;;;1.33;;
51718;SDS011;37795;53.236;5.704;2022-07-23T13:31:27;1.67;;;1.40;;
51718;SDS011;37795;53.236;5.704;2022-07-23T13:36:19;3.53;;;1.60;;
51718;SDS011;37795;53.236;5.704;2022-07-23T13:38:45;3.20;;;1.45;;
51718;SDS011;37795;53.236;5.704;2022-07-23T13:43:38;2.53;;;1.50;;
51718;SDS011;37795;53.236;5.704;2022-07-23T13:46:04;2.08;;;1.35;;
51718;SDS011;37795;53.236;5.704;2022-07-23T13:50:57;2.72;;;1.70;;
51718;SDS011;37795;53.236;5.704;2022-07-23T13:53:23;1.13;;;1.02;;
51718;SDS011;37795;53.236;5.704;2022-07-23T13:55:50;2.17;;;1.35;;
51718;SDS011;37795;53.236;5.704;2022-07-23T13:58:16;1.50;;;1.10;;
51718;SDS011;37795;53.236;5.704;2022-07-23T14:00:44;2.88;;;1.35;;
51718;SDS011;37795;53.236;5.704;2022-07-23T14:03:10;1.92;;;1.55;;
51718;SDS011;37795;53.236;5.704;2022-07-23T14:05:36;3.78;;;1.92;;
51718;SDS011;37795;53.236;5.704;2022-07-23T14:08:03;4.68;;;1.48;;
51718;SDS011;37795;53.236;5.704;2022-07-23T14:10:29;1.88;;;1.58;;
51718;SDS011;37795;53.236;5.704;2022-07-23T14:12:55;2.70;;;2.30;;
51718;SDS011;37795;53.236;5.704;2022-07-23T14:15:26;5.20;;;1.98;;
51718;SDS011;37795;53.236;5.704;2022-07-23T14:17:53;5.07;;;1.92;;
51718;SDS011;37795;53.236;5.704;2022-07-23T14:20:19;2.42;;;1.48;;
51718;SDS011;37795;53.236;5.704;2022-07-23T14:25:11;4.38;;;2.60;;
51718;SDS011;37795;53.236;5.704;2022-07-23T14:30:04;1.25;;;1.05;;
51718;SDS011;37795;53.236;5.704;2022-07-23T14:32:31;2.67;;;1.67;;
51718;SDS011;37795;53.236;5.704;2022-07-23T14:37:23;2.85;;;1.65;;
51718;SDS011;37795;53.236;5.704;2022-07-23T14:39:50;3.88;;;1.85;;
51718;SDS011;37795;53.236;5.704;2022-07-23T14:42:16;3.50;;;1.50;;
51718;SDS011;37795;53.236;5.704;2022-07-23T14:44:42;3.20;;;1.83;;
51718;SDS011;37795;53.236;5.704;2022-07-23T14:47:08;3.45;;;2.25;;
51718;SDS011;37795;53.236;5.704;2022-07-23T16:02:40;3.90;;;1.80;;
51718;SDS011;37795;53.236;5.704;2022-07-23T16:07:51;2.25;;;1.50;;
51718;SDS011;37795;53.236;5.704;2022-07-23T16:10:17;4.93;;;2.50;;
51718;SDS011;37795;53.236;5.704;2022-07-23T16:12:43;2.53;;;1.95;;
51718;SDS011;37795;53.236;5.704;2022-07-23T16:15:09;2.55;;;1.90;;
51718;SDS011;37795;53.236;5.704;2022-07-23T16:17:35;3.17;;;1.77;;
51718;SDS011;37795;53.236;5.704;2022-07-23T16:20:02;4.60;;;1.95;;
51718;SDS011;37795;53.236;5.704;2022-07-23T16:22:28;2.05;;;1.85;;
51718;SDS011;37795;53.236;5.704;2022-07-23T16:24:54;4.80;;;2.63;;
51718;SDS011;37795;53.236;5.704;2022-07-23T16:27:20;2.08;;;1.65;;
51718;SDS011;37795;53.236;5.704;2022-07-23T16:32:13;4.05;;;2.50;;
51718;SDS011;37795;53.236;5.704;2022-07-23T16:34:39;1.80;;;1.67;;
51718;SDS011;37795;53.236;5.704;2022-07-23T16:37:07;3.13;;;2.58;;
51718;SDS011;37795;53.236;5.704;2022-07-23T16:39:34;4.72;;;3.15;;
51718;SDS011;37795;53.236;5.704;2022-07-23T16:42:00;6.05;;;3.17;;
51718;SDS011;37795;53.236;5.704;2022-07-23T16:44:26;3.75;;;3.20;;
51718;SDS011;37795;53.236;5.704;2022-07-23T16:46:52;4.28;;;3.33;;
51718;SDS011;37795;53.236;5.704;2022-07-23T16:49:18;3.30;;;1.80;;
51718;SDS011;37795;53.236;5.704;2022-07-23T16:51:44;3.85;;;2.33;;
51718;SDS011;37795;53.236;5.704;2022-07-23T16:54:10;5.30;;;3.47;;
51718;SDS011;37795;53.236;5.704;2022-07-23T16:56:36;3.97;;;2.38;;
51718;SDS011;37795;53.236;5.704;2022-07-23T16:59:02;2.85;;;2.03;;
51718;SDS011;37795;53.236;5.704;2022-07-23T17:01:29;2.15;;;1.60;;
51718;SDS011;37795;53.236;5.704;2022-07-23T17:03:55;2.45;;;1.70;;
51718;SDS011;37795;53.236;5.704;2022-07-23T17:06:21;2.28;;;1.70;;
51718;SDS011;37795;53.236;5.704;2022-07-23T17:08:47;3.72;;;1.70;;
51718;SDS011;37795;53.236;5.704;2022-07-23T17:11:13;2.38;;;1.70;;
51718;SDS011;37795;53.236;5.704;2022-07-23T17:13:39;2.00;;;1.80;;
51718;SDS011;37795;53.236;5.704;2022-07-23T17:16:05;2.78;;;1.63;;
51718;SDS011;37795;53.236;5.704;2022-07-23T17:18:31;2.90;;;1.95;;
51718;SDS011;37795;53.236;5.704;2022-07-23T17:20:57;2.05;;;1.70;;
51718;SDS011;37795;53.236;5.704;2022-07-23T17:23:23;2.97;;;1.70;;
51718;SDS011;37795;53.236;5.704;2022-07-23T17:25:49;1.98;;;1.45;;
51718;SDS011;37795;53.236;5.704;2022-07-23T17:28:15;3.40;;;1.52;;
51718;SDS011;37795;53.236;5.704;2022-07-23T17:30:41;2.50;;;2.00;;
51718;SDS011;37795;53.236;5.704;2022-07-23T17:33:08;3.17;;;2.00;;
51718;SDS011;37795;53.236;5.704;2022-07-23T17:35:34;2.78;;;1.42;;
51718;SDS011;37795;53.236;5.704;2022-07-23T17:38:00;4.68;;;1.60;;
51718;SDS011;37795;53.236;5.704;2022-07-23T17:40:28;4.40;;;2.03;;
51718;SDS011;37795;53.236;5.704;2022-07-23T17:42:54;3.75;;;1.88;;
51718;SDS011;37795;53.236;5.704;2022-07-23T17:45:20;1.92;;;1.58;;
51718;SDS011;37795;53.236;5.704;2022-07-23T17:47:46;2.15;;;1.70;;
51718;SDS011;37795;53.236;5.704;2022-07-23T17:50:13;3.35;;;1.77;;
51718;SDS011;37795;53.236;5.704;2022-07-23T17:52:47;1.88;;;1.52;;
51718;SDS011;37795;53.236;5.704;2022-07-23T17:55:13;3.08;;;1.80;;
51718;SDS011;37795;53.236;5.704;2022-07-23T17:57:39;3.00;;;1.43;;
51718;SDS011;37795;53.236;5.704;2022-07-23T18:00:07;3.47;;;1.42;;
51718;SDS011;37795;53.236;5.704;2022-07-23T18:02:33;5.15;;;1.70;;
51718;SDS011;37795;53.236;5.704;2022-07-23T18:04:59;6.05;;;1.98;;
51718;SDS011;37795;53.236;5.704;2022-07-23T18:07:26;2.10;;;1.70;;
51718;SDS011;37795;53.236;5.704;2022-07-23T18:09:52;2.10;;;1.70;;
51718;SDS011;37795;53.236;5.704;2022-07-23T18:12:18;2.75;;;1.75;;
51718;SDS011;37795;53.236;5.704;2022-07-23T18:14:44;4.07;;;1.77;;
51718;SDS011;37795;53.236;5.704;2022-07-23T18:17:10;3.08;;;1.90;;
51718;SDS011;37795;53.236;5.704;2022-07-23T18:19:36;3.70;;;1.90;;
51718;SDS011;37795;53.236;5.704;2022-07-23T18:22:02;2.85;;;1.90;;
51718;SDS011;37795;53.236;5.704;2022-07-23T18:24:28;1.80;;;1.70;;
51718;SDS011;37795;53.236;5.704;2022-07-23T18:26:54;2.70;;;1.73;;